Time;durP1;ratioP1;P1;durP2;ratioP2;P2;SDS_P1;SDS_P2;PMS_P1;PMS_P2;Temp;Humidity;BMP_temperature;BMP_pressure;BME280_temperature;BME280_humidity;BME280_pressure;Samples;Min_cycle;Max_cycle;Signal;HPM_P1;HPM_P2
2023/04/05 00:02:20;;;;;;;;;;;4.80;39.20;;;;;;5034904;28;19928;-60
2023/04/05 00:04:49;;;;;;;;;;;4.80;39.30;;;;;;5034616;28;19921;-60
2023/04/05 00:07:16;;;;;;;;;;;4.70;39.30;;;;;;5034766;28;19920;-60
2023/04/05 00:09:42;;;;;;;;;;;4.70;39.40;;;;;;5034094;28;19917;-60
2023/04/05 00:12:07;;;;;;;;;;;4.70;39.50;;;;;;5034783;28;19963;-61
2023/04/05 00:14:33;;;;;;;;;;;4.60;39.50;;;;;;5034288;28;19913;-60
2023/04/05 00:16:58;;;;;;;;;;;4.60;39.60;;;;;;5034475;28;19913;-60
2023/04/05 00:19:23;;;;;;;;;;;4.50;39.60;;;;;;5034081;28;19913;-61
2023/04/05 00:21:49;;;;;;;;;;;4.50;39.70;;;;;;5038299;28;19963;-60
2023/04/05 00:24:14;;;;;;;;;;;4.50;39.70;;;;;;5040436;28;20400;-64
2023/04/05 00:26:42;;;;;;;;;;;4.40;39.80;;;;;;5033269;28;20383;-59
2023/04/05 00:29:08;;;;;;;;;;;4.30;40.00;;;;;;5033015;28;20291;-59
2023/04/05 00:31:33;;;;;;;;;;;4.30;40.30;;;;;;5032981;28;19913;-59
2023/04/05 00:33:58;;;;;;;;;;;4.20;40.20;;;;;;5028266;28;20269;-59
2023/04/05 00:36:25;;;;;;;;;;;4.20;40.20;;;;;;5043489;28;19917;-60
2023/04/05 00:38:50;;;;;;;;;;;4.20;40.20;;;;;;5034689;28;19921;-60
2023/04/05 00:41:16;;;;;;;;;;;4.20;40.20;;;;;;5033174;28;20475;-60
2023/04/05 00:43:41;;;;;;;;;;;4.10;40.20;;;;;;5023412;28;20403;-60
2023/04/05 00:46:07;;;;;;;;;;;4.10;40.50;;;;;;5020370;28;20381;-60
2023/04/05 00:48:34;;;;;;;;;;;4.00;41.10;;;;;;5029118;28;19918;-58
2023/04/05 00:50:59;;;;;;;;;;;4.00;40.90;;;;;;5017948;28;19913;-60
2023/04/05 00:53:28;;;;;;;;;;;4.00;40.90;;;;;;5033162;28;20384;-58
2023/04/05 00:55:54;;;;;;;;;;;3.90;40.80;;;;;;5033301;28;19963;-58
2023/04/05 00:58:21;;;;;;;;;;;3.90;40.70;;;;;;5031635;28;19917;-58
2023/04/05 01:01:08;;;;;;;;;;;3.90;40.70;;;;;;5023316;28;19913;-61
2023/04/05 01:03:34;;;;;;;;;;;3.90;40.80;;;;;;5012756;28;19917;-63
2023/04/05 01:05:59;;;;;;;;;;;3.80;40.90;;;;;;5011302;28;20319;-59
2023/04/05 01:08:32;;;;;;;;;;;3.80;41.00;;;;;;5027202;28;20012;-63
2023/04/05 01:11:00;;;;;;;;;;;3.70;41.00;;;;;;5025164;28;19921;-59
2023/04/05 01:13:25;;;;;;;;;;;3.70;41.10;;;;;;5026676;28;20376;-58
2023/04/05 01:15:51;;;;;;;;;;;3.70;41.10;;;;;;5012941;28;19917;-57
2023/04/05 01:18:17;;;;;;;;;;;3.70;41.20;;;;;;5017586;28;19928;-58
2023/04/05 01:20:51;;;;;;;;;;;3.60;41.20;;;;;;5030636;28;19913;-59
2023/04/05 01:23:29;;;;;;;;;;;3.60;41.30;;;;;;5031723;28;20341;-59
2023/04/05 01:26:10;;;;;;;;;;;3.60;41.40;;;;;;5031035;28;19924;-57
2023/04/05 01:28:38;;;;;;;;;;;3.60;41.40;;;;;;5031229;28;19917;-57
2023/04/05 01:31:10;;;;;;;;;;;3.50;41.50;;;;;;5032785;28;19943;-58
2023/04/05 01:33:43;;;;;;;;;;;3.50;41.50;;;;;;5031386;28;19921;-58
2023/04/05 01:36:14;;;;;;;;;;;3.50;41.50;;;;;;5027908;28;19920;-58
2023/04/05 01:38:39;;;;;;;;;;;3.50;41.50;;;;;;5026742;28;19924;-60
2023/04/05 01:41:05;;;;;;;;;;;3.40;41.60;;;;;;5032116;28;19913;-59
2023/04/05 01:43:31;;;;;;;;;;;3.40;41.70;;;;;;5030589;28;19917;-60
2023/04/05 01:45:56;;;;;;;;;;;3.30;41.80;;;;;;5031217;28;20019;-60
2023/04/05 01:48:21;;;;;;;;;;;3.30;41.80;;;;;;5028274;28;19918;-60
2023/04/05 01:50:47;;;;;;;;;;;3.30;41.80;;;;;;5013108;28;19909;-59
2023/04/05 01:53:12;;;;;;;;;;;3.20;41.80;;;;;;5025346;28;19989;-59
2023/04/05 01:55:38;;;;;;;;;;;3.20;41.80;;;;;;5013121;28;19914;-59
2023/04/05 01:58:03;;;;;;;;;;;3.20;42.00;;;;;;5030730;28;19920;-59
2023/04/05 02:00:29;;;;;;;;;;;3.10;42.20;;;;;;5026566;28;19914;-59
2023/04/05 02:02:55;;;;;;;;;;;3.10;42.20;;;;;;5021455;28;19917;-58
2023/04/05 02:05:20;;;;;;;;;;;3.10;42.20;;;;;;5030921;28;20272;-59
2023/04/05 02:07:45;;;;;;;;;;;3.10;42.20;;;;;;5030540;28;19921;-60
2023/04/05 02:10:11;;;;;;;;;;;3.10;42.30;;;;;;5030922;28;19913;-59
2023/04/05 02:12:36;;;;;;;;;;;3.00;42.40;;;;;;5023008;28;20133;-59
2023/04/05 02:15:02;;;;;;;;;;;3.00;42.50;;;;;;5016710;28;19914;-59
2023/04/05 02:17:37;;;;;;;;;;;3.00;42.40;;;;;;5011830;28;19918;-59
2023/04/05 02:20:06;;;;;;;;;;;3.00;42.40;;;;;;5031695;28;20015;-58
2023/04/05 02:22:31;;;;;;;;;;;3.00;42.40;;;;;;5031393;28;19917;-58
2023/04/05 02:24:56;;;;;;;;;;;2.90;42.40;;;;;;5030649;28;19927;-58
2023/04/05 02:27:22;;;;;;;;;;;3.00;42.40;;;;;;5031221;28;20379;-58
2023/04/05 02:29:47;;;;;;;;;;;3.00;42.50;;;;;;5025732;28;19920;-58
2023/04/05 02:32:13;;;;;;;;;;;3.00;42.60;;;;;;5033577;28;19920;-58
2023/04/05 02:34:40;;;;;;;;;;;2.90;42.60;;;;;;5031338;28;19917;-58
2023/04/05 02:37:05;;;;;;;;;;;2.90;42.70;;;;;;5038160;28;20435;-60
2023/04/05 02:39:31;;;;;;;;;;;2.90;42.80;;;;;;5027342;28;20059;-60
2023/04/05 02:41:57;;;;;;;;;;;2.80;42.90;;;;;;5028272;28;19928;-60
2023/04/05 02:44:23;;;;;;;;;;;2.80;42.90;;;;;;5028094;28;19924;-58
2023/04/05 02:46:49;;;;;;;;;;;2.80;43.00;;;;;;5031039;28;19917;-58
2023/04/05 02:49:14;;;;;;;;;;;2.80;43.00;;;;;;5031530;28;19987;-58
2023/04/05 02:51:40;;;;;;;;;;;2.80;43.30;;;;;;5029848;28;20322;-59
2023/04/05 02:54:05;;;;;;;;;;;2.80;43.30;;;;;;5031312;28;19920;-59
2023/04/05 02:56:31;;;;;;;;;;;2.80;43.30;;;;;;5031150;28;19913;-58
2023/04/05 02:58:56;;;;;;;;;;;2.80;43.30;;;;;;5029875;28;20292;-58
2023/04/05 03:01:22;;;;;;;;;;;2.80;43.40;;;;;;5031601;28;19914;-58
2023/04/05 03:03:48;;;;;;;;;;;2.70;43.30;;;;;;5031420;28;19958;-58
2023/04/05 03:06:13;;;;;;;;;;;2.70;43.40;;;;;;5033038;28;20007;-59
2023/04/05 03:08:42;;;;;;;;;;;2.70;43.50;;;;;;5021559;28;19991;-58
2023/04/05 03:11:09;;;;;;;;;;;2.70;43.50;;;;;;5016287;28;19913;-60
2023/04/05 03:13:35;;;;;;;;;;;2.70;43.40;;;;;;5027799;28;20017;-60
2023/04/05 03:16:04;;;;;;;;;;;2.70;43.40;;;;;;5028948;28;20040;-60
2023/04/05 03:18:30;;;;;;;;;;;2.60;43.40;;;;;;5030314;28;19917;-59
2023/04/05 03:20:56;;;;;;;;;;;2.70;43.60;;;;;;5027970;28;20287;-60
2023/04/05 03:23:25;;;;;;;;;;;2.70;43.70;;;;;;5029695;28;19924;-57
2023/04/05 03:25:58;;;;;;;;;;;2.70;43.70;;;;;;5029877;28;19936;-58
2023/04/05 03:28:24;;;;;;;;;;;2.70;43.80;;;;;;5030035;28;20331;-59
2023/04/05 03:30:49;;;;;;;;;;;2.70;43.80;;;;;;5031428;28;20060;-58
2023/04/05 03:33:15;;;;;;;;;;;2.70;43.80;;;;;;5034876;28;19971;-58
2023/04/05 03:35:40;;;;;;;;;;;2.60;43.70;;;;;;5037868;28;19920;-58
2023/04/05 03:38:06;;;;;;;;;;;2.60;43.80;;;;;;5039948;28;19970;-58
2023/04/05 03:40:31;;;;;;;;;;;2.60;43.80;;;;;;5036346;28;20238;-58
2023/04/05 03:42:57;;;;;;;;;;;2.50;43.80;;;;;;5015439;28;19973;-59
2023/04/05 03:45:23;;;;;;;;;;;2.50;43.80;;;;;;5016512;28;20423;-61
2023/04/05 03:47:48;;;;;;;;;;;2.50;43.80;;;;;;5036218;28;19929;-59
2023/04/05 03:50:14;;;;;;;;;;;2.40;43.90;;;;;;5026344;28;20356;-62
2023/04/05 03:52:39;;;;;;;;;;;2.40;43.90;;;;;;5031072;28;19936;-59
2023/04/05 03:55:05;;;;;;;;;;;2.40;43.90;;;;;;5034427;28;19909;-61
2023/04/05 03:57:30;;;;;;;;;;;2.40;43.80;;;;;;5034432;28;19913;-59
2023/04/05 03:59:55;;;;;;;;;;;2.30;43.90;;;;;;5034203;28;20293;-59
2023/04/05 04:02:21;;;;;;;;;;;2.30;43.90;;;;;;5034417;28;19920;-58
2023/04/05 04:04:46;;;;;;;;;;;2.30;44.10;;;;;;5034178;28;20244;-59
2023/04/05 04:07:12;;;;;;;;;;;2.30;44.40;;;;;;5034639;28;19979;-58
2023/04/05 04:09:37;;;;;;;;;;;2.30;44.40;;;;;;5033984;28;19987;-59
2023/04/05 04:12:03;;;;;;;;;;;2.30;44.30;;;;;;5034543;28;20329;-59
2023/04/05 04:14:28;;;;;;;;;;;2.20;44.30;;;;;;5034194;28;19920;-59
2023/04/05 04:16:54;;;;;;;;;;;2.20;44.30;;;;;;5034511;28;20284;-59
2023/04/05 04:19:19;;;;;;;;;;;2.20;44.30;;;;;;5034029;28;19921;-59
2023/04/05 04:21:49;;;;;;;;;;;2.10;44.30;;;;;;5034173;28;19914;-59
2023/04/05 04:24:17;;;;;;;;;;;2.10;44.40;;;;;;5034177;28;19924;-59
2023/04/05 04:26:43;;;;;;;;;;;2.10;44.40;;;;;;5034433;28;19970;-58
2023/04/05 04:29:11;;;;;;;;;;;2.10;44.40;;;;;;5033837;28;20428;-59
2023/04/05 04:31:38;;;;;;;;;;;2.10;44.40;;;;;;5042930;28;19917;-59
2023/04/05 04:34:04;;;;;;;;;;;2.10;44.40;;;;;;5033160;28;19928;-59
2023/04/05 04:36:38;;;;;;;;;;;2.10;44.40;;;;;;5034513;28;20280;-59
2023/04/05 04:39:06;;;;;;;;;;;2.10;44.40;;;;;;5032202;28;19921;-59
2023/04/05 04:41:32;;;;;;;;;;;2.10;44.50;;;;;;5032346;28;19913;-59
2023/04/05 04:44:01;;;;;;;;;;;2.10;44.50;;;;;;5032833;28;19921;-60
2023/04/05 04:46:33;;;;;;;;;;;2.10;44.50;;;;;;5041870;28;19928;-58
2023/04/05 04:49:00;;;;;;;;;;;2.10;44.50;;;;;;5032520;28;20365;-59
2023/04/05 04:51:26;;;;;;;;;;;2.10;44.50;;;;;;5032441;28;20406;-58
2023/04/05 04:53:51;;;;;;;;;;;2.00;44.50;;;;;;5031809;28;19961;-59
2023/04/05 04:56:16;;;;;;;;;;;2.00;44.50;;;;;;5032322;28;20004;-59
2023/04/05 04:58:42;;;;;;;;;;;2.00;44.50;;;;;;5032093;28;19913;-59
2023/04/05 05:01:08;;;;;;;;;;;2.00;44.60;;;;;;5032044;28;19913;-60
2023/04/05 05:03:35;;;;;;;;;;;2.10;44.70;;;;;;5031978;28;19914;-59
2023/04/05 05:06:01;;;;;;;;;;;2.20;44.90;;;;;;5028321;28;19921;-58
2023/04/05 05:08:27;;;;;;;;;;;2.20;45.50;;;;;;5031685;28;19948;-59
2023/04/05 05:10:52;;;;;;;;;;;2.40;46.10;;;;;;5031858;28;19956;-57
2023/04/05 05:13:18;;;;;;;;;;;2.60;46.50;;;;;;5031987;28;19949;-58
2023/04/05 05:15:43;;;;;;;;;;;2.90;46.90;;;;;;5031646;28;19913;-60
2023/04/05 05:18:09;;;;;;;;;;;3.20;47.30;;;;;;5031436;28;19956;-59
2023/04/05 05:20:35;;;;;;;;;;;3.50;47.70;;;;;;5031719;28;20008;-60
2023/04/05 05:23:01;;;;;;;;;;;3.90;48.10;;;;;;5033465;28;19920;-58
2023/04/05 05:25:26;;;;;;;;;;;4.30;48.50;;;;;;5032606;28;19921;-59
2023/04/05 05:27:52;;;;;;;;;;;4.70;48.90;;;;;;5031288;28;19966;-57
2023/04/05 05:30:18;;;;;;;;;;;5.10;49.20;;;;;;5027340;28;19917;-57
2023/04/05 05:32:43;;;;;;;;;;;5.50;49.40;;;;;;5031149;28;19913;-58
2023/04/05 05:35:08;;;;;;;;;;;5.90;49.50;;;;;;5032657;28;19955;-59
2023/04/05 05:37:35;;;;;;;;;;;6.30;49.70;;;;;;5034489;28;19951;-58
2023/04/05 05:40:00;;;;;;;;;;;6.80;49.80;;;;;;5030886;28;20030;-58
2023/04/05 05:42:26;;;;;;;;;;;7.20;50.30;;;;;;5030010;28;19921;-58
2023/04/05 05:44:52;;;;;;;;;;;7.60;51.60;;;;;;5028799;28;20261;-58
2023/04/05 05:47:17;;;;;;;;;;;8.00;52.80;;;;;;5036043;28;20000;-58
2023/04/05 05:49:44;;;;;;;;;;;8.40;53.70;;;;;;5029734;28;21376;-60
2023/04/05 05:52:10;;;;;;;;;;;8.80;54.50;;;;;;5031208;28;20349;-59
2023/04/05 05:54:35;;;;;;;;;;;9.30;55.00;;;;;;5029274;28;19917;-59
2023/04/05 05:57:01;;;;;;;;;;;9.70;55.50;;;;;;5023283;28;19919;-62
2023/04/05 05:59:26;;;;;;;;;;;10.10;56.10;;;;;;5032115;28;19923;-58
2023/04/05 06:01:53;;;;;;;;;;;10.60;56.70;;;;;;5030409;28;19913;-59
2023/04/05 06:04:19;;;;;;;;;;;11.10;57.20;;;;;;5026875;28;19917;-58
2023/04/05 06:06:46;;;;;;;;;;;11.50;57.60;;;;;;5021028;28;19924;-58
2023/04/05 06:09:12;;;;;;;;;;;12.00;57.80;;;;;;5031420;28;19917;-59
2023/04/05 06:11:38;;;;;;;;;;;12.40;57.90;;;;;;5020833;28;19965;-58
2023/04/05 06:14:03;;;;;;;;;;;12.80;58.30;;;;;;5031665;28;19924;-58
2023/04/05 06:16:29;;;;;;;;;;;13.30;58.50;;;;;;5016472;28;19913;-58
2023/04/05 06:18:55;;;;;;;;;;;13.80;58.30;;;;;;5027355;28;19917;-60
2023/04/05 06:21:20;;;;;;;;;;;14.20;58.30;;;;;;5042349;28;20276;-58
2023/04/05 06:23:46;;;;;;;;;;;14.60;58.20;;;;;;5020869;28;19927;-59
2023/04/05 06:26:17;;;;;;;;;;;15.10;58.50;;;;;;5014361;28;19917;-58
2023/04/05 06:28:43;;;;;;;;;;;15.50;58.00;;;;;;5030655;28;19917;-60
2023/04/05 06:31:08;;;;;;;;;;;16.00;58.20;;;;;;5031888;28;20001;-58
2023/04/05 06:33:34;;;;;;;;;;;16.40;57.40;;;;;;5031636;28;20331;-61
2023/04/05 06:36:00;;;;;;;;;;;16.70;57.70;;;;;;5032266;28;19967;-58
2023/04/05 06:38:25;;;;;;;;;;;17.10;57.60;;;;;;5029093;28;19925;-60
2023/04/05 06:40:51;;;;;;;;;;;17.50;57.40;;;;;;5028509;28;20008;-58
2023/04/05 06:43:16;;;;;;;;;;;17.80;57.60;;;;;;5029338;28;20346;-58
2023/04/05 06:45:42;;;;;;;;;;;18.10;56.70;;;;;;5024573;28;20012;-59
2023/04/05 06:48:07;;;;;;;;;;;18.40;56.10;;;;;;5023438;28;19918;-58
2023/04/05 06:50:33;;;;;;;;;;;18.70;56.60;;;;;;5026705;28;19963;-59
2023/04/05 06:52:58;;;;;;;;;;;19.10;56.40;;;;;;5030552;28;19964;-59
2023/04/05 06:55:24;;;;;;;;;;;19.40;55.20;;;;;;5027366;28;20294;-59
2023/04/05 06:57:49;;;;;;;;;;;19.70;55.90;;;;;;5025153;28;20007;-59
2023/04/05 07:00:16;;;;;;;;;;;20.00;54.70;;;;;;5031838;28;19913;-59
2023/04/05 07:02:41;;;;;;;;;;;20.30;55.50;;;;;;5025106;28;19971;-58
2023/04/05 07:05:07;;;;;;;;;;;20.70;54.30;;;;;;5027631;28;19921;-58
2023/04/05 07:07:33;;;;;;;;;;;20.90;53.40;;;;;;5031794;28;19925;-59
2023/04/05 07:09:59;;;;;;;;;;;21.20;52.10;;;;;;5033919;28;20280;-59
2023/04/05 07:12:24;;;;;;;;;;;21.50;51.20;;;;;;5021379;28;19971;-59
2023/04/05 07:14:50;;;;;;;;;;;21.80;50.60;;;;;;5020469;28;19917;-58
2023/04/05 07:17:15;;;;;;;;;;;22.10;49.30;;;;;;5031855;28;20384;-58
2023/04/05 07:19:41;;;;;;;;;;;22.30;49.20;;;;;;5016735;28;20385;-60
2023/04/05 07:22:07;;;;;;;;;;;22.70;49.70;;;;;;5030646;28;20196;-62
2023/04/05 07:24:32;;;;;;;;;;;23.00;48.80;;;;;;5030553;28;20058;-60
2023/04/05 07:26:57;;;;;;;;;;;23.20;47.70;;;;;;5030342;28;19940;-61
2023/04/05 07:29:23;;;;;;;;;;;23.50;46.60;;;;;;5024545;28;19999;-60
2023/04/05 07:31:48;;;;;;;;;;;23.70;45.40;;;;;;5027331;28;19935;-59
2023/04/05 07:34:14;;;;;;;;;;;23.80;43.40;;;;;;5039674;28;20369;-60
2023/04/05 07:36:39;;;;;;;;;;;23.90;41.40;;;;;;5034830;28;19913;-60
2023/04/05 07:39:05;;;;;;;;;;;23.80;38.00;;;;;;5032185;28;19922;-59
2023/04/05 07:41:30;;;;;;;;;;;23.70;36.00;;;;;;5030965;28;19948;-59
2023/04/05 07:43:56;;;;;;;;;;;23.60;34.90;;;;;;5032162;28;20088;-61
2023/04/05 07:46:22;;;;;;;;;;;23.40;33.50;;;;;;5028463;28;19917;-59
2023/04/05 07:48:47;;;;;;;;;;;23.40;33.70;;;;;;5028341;28;19925;-59
2023/04/05 07:51:12;;;;;;;;;;;23.30;32.40;;;;;;5031238;28;20395;-59
2023/04/05 07:53:38;;;;;;;;;;;23.30;33.00;;;;;;5032719;28;20051;-59
2023/04/05 07:56:07;;;;;;;;;;;23.50;32.90;;;;;;5030466;28;20356;-58
2023/04/05 07:58:33;;;;;;;;;;;23.50;31.30;;;;;;5033849;28;19999;-59
2023/04/05 08:01:02;;;;;;;;;;;23.70;31.10;;;;;;5023296;28;20372;-59
2023/04/05 08:03:28;;;;;;;;;;;23.80;30.70;;;;;;5032884;28;19920;-59
2023/04/05 08:05:53;;;;;;;;;;;23.90;29.80;;;;;;5023752;28;19917;-61
2023/04/05 08:08:19;;;;;;;;;;;24.10;30.40;;;;;;5034478;28;20391;-59
2023/04/05 08:10:45;;;;;;;;;;;24.30;30.60;;;;;;5033662;28;20335;-59
2023/04/05 08:13:10;;;;;;;;;;;24.70;29.30;;;;;;5022299;28;20405;-59
2023/04/05 08:15:36;;;;;;;;;;;24.80;28.10;;;;;;5020514;28;19975;-59
2023/04/05 08:18:01;;;;;;;;;;;24.80;27.60;;;;;;5028950;28;20372;-59
2023/04/05 08:20:26;;;;;;;;;;;25.10;27.50;;;;;;5020512;28;20385;-60
2023/04/05 08:22:52;;;;;;;;;;;25.10;25.20;;;;;;5029104;28;19999;-58
2023/04/05 08:25:17;;;;;;;;;;;25.10;25.90;;;;;;5028337;28;19917;-62
2023/04/05 08:27:43;;;;;;;;;;;25.10;24.10;;;;;;5032314;28;20335;-58
2023/04/05 08:30:09;;;;;;;;;;;25.00;24.70;;;;;;5030252;28;19920;-58
2023/04/05 08:32:34;;;;;;;;;;;24.90;24.20;;;;;;5029255;28;20458;-58
2023/04/05 08:35:00;;;;;;;;;;;24.90;24.40;;;;;;5029014;28;20401;-59
2023/04/05 08:37:25;;;;;;;;;;;24.90;22.80;;;;;;5029494;28;19936;-58
2023/04/05 08:39:51;;;;;;;;;;;24.80;23.70;;;;;;5029920;28;20341;-59
2023/04/05 08:42:17;;;;;;;;;;;24.90;24.00;;;;;;5031505;28;20376;-59
2023/04/05 08:44:43;;;;;;;;;;;25.20;23.50;;;;;;5029581;28;20452;-58
2023/04/05 08:47:13;;;;;;;;;;;25.40;23.30;;;;;;5026616;28;19917;-62
2023/04/05 08:49:43;;;;;;;;;;;25.50;22.10;;;;;;5030340;28;19921;-59
2023/04/05 08:52:08;;;;;;;;;;;25.40;21.70;;;;;;5031568;28;19913;-59
2023/04/05 08:54:34;;;;;;;;;;;25.30;21.30;;;;;;5028710;28;19940;-59
2023/04/05 08:57:02;;;;;;;;;;;25.30;21.50;;;;;;5032243;28;20000;-59
2023/04/05 08:59:28;;;;;;;;;;;25.30;20.20;;;;;;5036424;28;19917;-59
2023/04/05 09:01:54;;;;;;;;;;;25.10;20.40;;;;;;5031061;28;19924;-59
2023/04/05 09:04:21;;;;;;;;;;;25.10;20.30;;;;;;5032032;28;19913;-60
2023/04/05 09:06:48;;;;;;;;;;;25.00;19.70;;;;;;5030796;28;19917;-60
2023/04/05 09:09:14;;;;;;;;;;;24.70;19.70;;;;;;5032980;28;19913;-59
2023/04/05 09:11:39;;;;;;;;;;;24.50;19.20;;;;;;5026047;28;20269;-60
2023/04/05 09:14:06;;;;;;;;;;;24.20;19.00;;;;;;5032985;28;20000;-59
2023/04/05 09:16:36;;;;;;;;;;;24.00;19.50;;;;;;5028746;28;19917;-59
2023/04/05 09:19:01;;;;;;;;;;;24.20;19.70;;;;;;5032860;28;19913;-60
2023/04/05 09:21:27;;;;;;;;;;;24.40;19.70;;;;;;5030265;28;20395;-60
2023/04/05 09:23:53;;;;;;;;;;;24.50;19.30;;;;;;5031317;28;19920;-60
2023/04/05 09:26:18;;;;;;;;;;;24.50;19.00;;;;;;5026311;28;19917;-60
2023/04/05 09:28:44;;;;;;;;;;;24.50;19.40;;;;;;5032722;28;20296;-60
2023/04/05 09:31:27;;;;;;;;;;;24.40;18.40;;;;;;5025164;28;20004;-60
2023/04/05 09:33:53;;;;;;;;;;;24.20;18.20;;;;;;5032890;28;19913;-60
2023/04/05 09:36:18;;;;;;;;;;;24.10;18.40;;;;;;5028132;28;20277;-61
2023/04/05 09:38:44;;;;;;;;;;;24.20;18.70;;;;;;5029326;28;20285;-60
2023/04/05 09:41:10;;;;;;;;;;;24.30;18.70;;;;;;5032207;28;20032;-60
2023/04/05 09:43:39;;;;;;;;;;;24.30;18.50;;;;;;5020313;28;19918;-61
2023/04/05 09:46:05;;;;;;;;;;;24.40;18.30;;;;;;5024027;28;19924;-59
2023/04/05 09:48:46;;;;;;;;;;;24.40;18.10;;;;;;5030623;28;20377;-59
2023/04/05 09:51:13;;;;;;;;;;;24.40;18.30;;;;;;5030333;28;19948;-59
2023/04/05 09:53:55;;;;;;;;;;;24.40;18.00;;;;;;5017473;28;19960;-60
2023/04/05 09:56:20;;;;;;;;;;;24.40;17.90;;;;;;5026612;28;19960;-59
2023/04/05 09:58:49;;;;;;;;;;;24.30;18.00;;;;;;5031971;28;19956;-59
2023/04/05 10:01:15;;;;;;;;;;;24.30;18.00;;;;;;5030492;28;20031;-59
2023/04/05 10:03:47;;;;;;;;;;;24.40;18.20;;;;;;5032074;28;19996;-59
2023/04/05 10:06:13;;;;;;;;;;;24.70;17.60;;;;;;5025748;28;19921;-60
2023/04/05 10:08:38;;;;;;;;;;;24.70;17.50;;;;;;5032276;28;19917;-60
2023/04/05 10:11:04;;;;;;;;;;;24.50;17.50;;;;;;5031201;28;19920;-60
2023/04/05 10:13:30;;;;;;;;;;;24.50;17.70;;;;;;5031362;28;19921;-60
2023/04/05 10:15:59;;;;;;;;;;;24.60;17.90;;;;;;5028661;28;20402;-63
2023/04/05 10:18:28;;;;;;;;;;;24.80;18.20;;;;;;5032030;28;20003;-62
2023/04/05 10:20:56;;;;;;;;;;;25.10;17.80;;;;;;5029538;28;19913;-62
2023/04/05 10:23:27;;;;;;;;;;;25.30;17.30;;;;;;5032387;28;19917;-59
2023/04/05 10:25:52;;;;;;;;;;;25.30;17.10;;;;;;5024171;28;19928;-59
2023/04/05 10:28:21;;;;;;;;;;;25.50;17.30;;;;;;5030427;28;19917;-60
2023/04/05 10:30:50;;;;;;;;;;;25.80;17.40;;;;;;5031483;28;19963;-59
2023/04/05 10:33:19;;;;;;;;;;;25.90;16.80;;;;;;5030584;28;19999;-60
2023/04/05 10:35:45;;;;;;;;;;;25.80;16.60;;;;;;5029107;28;20004;-62
2023/04/05 10:38:14;;;;;;;;;;;26.10;17.00;;;;;;5031008;28;20436;-60
2023/04/05 10:40:42;;;;;;;;;;;26.30;16.70;;;;;;5030293;28;19956;-61
2023/04/05 10:43:11;;;;;;;;;;;26.40;16.50;;;;;;5022203;28;19926;-64
2023/04/05 10:45:37;;;;;;;;;;;26.30;16.50;;;;;;5019070;28;19982;-60
2023/04/05 10:48:14;;;;;;;;;;;26.30;16.20;;;;;;5031568;28;19920;-60
2023/04/05 10:50:40;;;;;;;;;;;26.40;16.10;;;;;;5028577;28;19921;-61
2023/04/05 10:53:07;;;;;;;;;;;26.20;16.10;;;;;;5031428;28;20266;-60
2023/04/05 10:55:33;;;;;;;;;;;26.20;16.10;;;;;;5027075;28;19917;-61
2023/04/05 10:57:58;;;;;;;;;;;26.20;16.10;;;;;;5031703;28;20396;-60
2023/04/05 11:00:25;;;;;;;;;;;26.30;16.10;;;;;;5030000;28;19940;-59
2023/04/05 11:02:55;;;;;;;;;;;26.40;16.20;;;;;;5011766;28;19975;-59
2023/04/05 11:05:28;;;;;;;;;;;26.60;16.10;;;;;;5026707;28;19917;-58
2023/04/05 11:07:58;;;;;;;;;;;26.50;16.10;;;;;;5031338;28;20293;-59
2023/04/05 11:10:24;;;;;;;;;;;25.80;15.80;;;;;;5029614;28;20022;-59
2023/04/05 11:12:52;;;;;;;;;;;25.40;16.30;;;;;;5031096;28;19917;-63
2023/04/05 11:15:26;;;;;;;;;;;25.70;16.60;;;;;;5017817;28;19913;-61
2023/04/05 11:18:18;;;;;;;;;;;26.00;16.60;;;;;;5028450;28;19928;-59
2023/04/05 11:20:46;;;;;;;;;;;26.20;16.30;;;;;;5030437;28;20016;-59
2023/04/05 11:23:15;;;;;;;;;;;26.30;16.10;;;;;;5030699;28;19940;-60
2023/04/05 11:25:54;;;;;;;;;;;26.60;16.20;;;;;;5025133;28;19917;-60
2023/04/05 11:28:30;;;;;;;;;;;26.90;16.00;;;;;;5028562;28;19924;-60
2023/04/05 11:30:57;;;;;;;;;;;26.80;15.10;;;;;;5030043;28;19917;-60
2023/04/05 11:33:36;;;;;;;;;;;26.50;15.20;;;;;;5031026;28;19920;-59
2023/04/05 11:36:02;;;;;;;;;;;26.20;15.20;;;;;;5033016;28;19913;-60
2023/04/05 11:38:27;;;;;;;;;;;25.80;15.30;;;;;;5041142;28;20364;-60
2023/04/05 11:41:04;;;;;;;;;;;25.80;15.50;;;;;;5028789;28;19920;-60
2023/04/05 11:43:30;;;;;;;;;;;25.80;15.80;;;;;;5028684;28;20431;-59
2023/04/05 11:45:55;;;;;;;;;;;25.80;15.80;;;;;;5025557;28;20361;-59
2023/04/05 11:48:21;;;;;;;;;;;25.80;15.60;;;;;;5030439;28;19917;-60
2023/04/05 11:50:46;;;;;;;;;;;25.50;15.50;;;;;;5029839;28;19917;-61
2023/04/05 11:53:16;;;;;;;;;;;25.00;16.00;;;;;;5034755;28;19917;-58
2023/04/05 11:55:45;;;;;;;;;;;25.10;16.30;;;;;;5033690;28;19909;-60
2023/04/05 11:58:15;;;;;;;;;;;25.40;16.10;;;;;;5034688;28;19913;-60
2023/04/05 12:00:41;;;;;;;;;;;25.90;15.90;;;;;;5033408;28;20377;-62
2023/04/05 12:03:09;;;;;;;;;;;25.90;15.80;;;;;;5034868;28;19994;-60
2023/04/05 12:05:51;;;;;;;;;;;25.70;15.70;;;;;;5033355;28;19920;-60
2023/04/05 12:08:17;;;;;;;;;;;24.80;15.90;;;;;;5034372;28;20373;-59
2023/04/05 12:10:42;;;;;;;;;;;24.50;16.10;;;;;;5032413;28;20205;-59
2023/04/05 12:13:08;;;;;;;;;;;24.70;16.40;;;;;;5034220;28;20008;-60
2023/04/05 12:15:38;;;;;;;;;;;25.10;16.50;;;;;;5033190;28;19913;-59
2023/04/05 12:18:04;;;;;;;;;;;25.20;16.10;;;;;;5034154;28;20317;-60
2023/04/05 12:20:29;;;;;;;;;;;25.30;16.00;;;;;;5031899;28;19959;-60
2023/04/05 12:22:55;;;;;;;;;;;25.30;16.00;;;;;;5033902;28;19963;-60
2023/04/05 12:25:21;;;;;;;;;;;25.30;15.90;;;;;;5032806;28;20312;-59
2023/04/05 12:27:47;;;;;;;;;;;25.30;16.10;;;;;;5033922;28;19932;-60
2023/04/05 12:30:22;;;;;;;;;;;25.30;15.80;;;;;;5033157;28;20381;-59
2023/04/05 12:32:52;;;;;;;;;;;25.30;15.90;;;;;;5033509;28;19921;-60
2023/04/05 12:35:23;;;;;;;;;;;25.30;15.40;;;;;;5039534;28;19919;-59
2023/04/05 12:37:49;;;;;;;;;;;25.30;15.80;;;;;;5053926;28;20272;-61
2023/04/05 12:40:19;;;;;;;;;;;25.30;15.90;;;;;;5014979;28;19932;-60
2023/04/05 12:42:44;;;;;;;;;;;25.20;15.80;;;;;;5026099;28;19960;-60
2023/04/05 12:45:11;;;;;;;;;;;25.20;15.90;;;;;;5033676;28;19952;-60
2023/04/05 12:47:46;;;;;;;;;;;25.30;16.00;;;;;;5031320;28;19921;-60
2023/04/05 12:50:13;;;;;;;;;;;25.40;15.90;;;;;;5033893;28;19959;-60
2023/04/05 12:52:50;;;;;;;;;;;25.60;16.20;;;;;;5031819;28;20019;-60
2023/04/05 12:55:15;;;;;;;;;;;26.00;15.90;;;;;;5034003;28;20277;-60
2023/04/05 12:57:41;;;;;;;;;;;26.00;15.70;;;;;;5032611;28;19917;-62
2023/04/05 13:00:07;;;;;;;;;;;26.20;16.00;;;;;;5033407;28;19927;-59
2023/04/05 13:02:33;;;;;;;;;;;26.50;15.80;;;;;;5031614;28;19917;-59
2023/04/05 13:04:58;;;;;;;;;;;26.40;15.50;;;;;;5033148;28;19913;-61
2023/04/05 13:07:24;;;;;;;;;;;26.00;15.20;;;;;;5031701;28;19917;-59
2023/04/05 13:09:49;;;;;;;;;;;25.20;15.30;;;;;;5033330;28;19909;-60
2023/04/05 13:12:14;;;;;;;;;;;24.70;15.60;;;;;;5033346;28;19914;-58
2023/04/05 13:14:40;;;;;;;;;;;24.50;15.80;;;;;;5029570;28;20289;-59
2023/04/05 13:17:05;;;;;;;;;;;24.60;16.10;;;;;;5031906;28;20369;-59
2023/04/05 13:19:31;;;;;;;;;;;24.70;16.00;;;;;;5028477;28;19949;-60
2023/04/05 13:21:56;;;;;;;;;;;24.60;15.90;;;;;;5033400;28;19996;-60
2023/04/05 13:24:21;;;;;;;;;;;24.70;16.20;;;;;;5028744;28;19917;-60
2023/04/05 13:26:47;;;;;;;;;;;24.90;16.40;;;;;;5028570;28;19979;-60
2023/04/05 13:29:12;;;;;;;;;;;25.10;16.60;;;;;;5031639;28;20382;-62
2023/04/05 13:31:39;;;;;;;;;;;24.80;16.70;;;;;;5030921;28;19919;-61
2023/04/05 13:34:05;;;;;;;;;;;24.10;17.10;;;;;;5030663;28;19913;-61
2023/04/05 13:36:30;;;;;;;;;;;23.40;17.20;;;;;;5029691;28;19924;-59
2023/04/05 13:38:56;;;;;;;;;;;22.80;17.60;;;;;;5031759;28;19921;-60
2023/04/05 13:41:21;;;;;;;;;;;22.50;18.10;;;;;;5017547;28;19917;-60
2023/04/05 13:43:47;;;;;;;;;;;22.30;18.20;;;;;;5013405;28;19918;-60
2023/04/05 13:46:12;;;;;;;;;;;22.00;18.00;;;;;;5028799;28;19921;-60
2023/04/05 13:48:37;;;;;;;;;;;21.50;18.00;;;;;;5031832;28;19917;-60
2023/04/05 13:51:03;;;;;;;;;;;20.90;18.10;;;;;;5031807;28;19913;-60
2023/04/05 13:53:29;;;;;;;;;;;20.40;18.50;;;;;;5032126;28;19913;-63
2023/04/05 13:55:54;;;;;;;;;;;20.00;18.90;;;;;;5023926;28;19917;-60
2023/04/05 13:58:20;;;;;;;;;;;19.50;19.20;;;;;;5031779;28;19917;-60
2023/04/05 14:00:46;;;;;;;;;;;19.10;19.50;;;;;;5028460;28;20733;-59
2023/04/05 14:03:11;;;;;;;;;;;18.80;19.80;;;;;;5031835;28;19913;-60
2023/04/05 14:05:36;;;;;;;;;;;18.50;20.00;;;;;;5027246;28;20311;-60
2023/04/05 14:08:02;;;;;;;;;;;18.20;20.30;;;;;;5028639;28;20356;-59
2023/04/05 14:10:29;;;;;;;;;;;18.00;20.60;;;;;;5031610;28;20391;-60
2023/04/05 14:12:55;;;;;;;;;;;17.90;20.80;;;;;;5020087;28;20395;-59
2023/04/05 14:15:20;;;;;;;;;;;17.80;21.00;;;;;;5018111;28;19925;-59
2023/04/05 14:17:46;;;;;;;;;;;17.70;21.00;;;;;;5039069;28;19956;-60
2023/04/05 14:20:11;;;;;;;;;;;17.50;21.20;;;;;;5031397;28;19953;-61
2023/04/05 14:22:37;;;;;;;;;;;17.30;21.30;;;;;;5031506;28;19921;-60